sensor_id;sensor_type;location;lat;lon;timestamp;pressure;altitude;pressure_sealevel;temperature;humidity
53619;BME280;68717;53.040;18.488;2023-05-22T00:00:11;101769.97;;;12.43;100.00
53619;BME280;68717;53.040;18.488;2023-05-22T00:00:44;101769.13;;;12.42;100.00
53619;BME280;68717;53.040;18.488;2023-05-22T00:01:07;101771.91;;;12.41;100.00
53619;BME280;68717;53.040;18.488;2023-05-22T00:01:20;101766.53;;;12.41;100.00
53619;BME280;68717;53.040;18.488;2023-05-22T00:01:33;101766.69;;;12.39;100.00
53619;BME280;68717;53.040;18.488;2023-05-22T00:01:48;101765.69;;;12.40;100.00
53619;BME280;68717;53.040;18.488;2023-05-22T00:02:03;101765.78;;;12.39;100.00
53619;BME280;68717;53.040;18.488;2023-05-22T00:02:17;101772.16;;;12.38;100.00
53619;BME280;68717;53.040;18.488;2023-05-22T00:02:30;101759.56;;;12.38;100.00
53619;BME280;68717;53.040;18.488;2023-05-22T00:02:44;101760.56;;;12.37;100.00
53619;BME280;68717;53.040;18.488;2023-05-22T00:02:57;101760.56;;;12.37;100.00
53619;BME280;68717;53.040;18.488;2023-05-22T00:03:10;101763.25;;;12.37;100.00
53619;BME280;68717;53.040;18.488;2023-05-22T00:03:23;101770.47;;;12.37;100.00
53619;BME280;68717;53.040;18.488;2023-05-22T00:03:35;101758.81;;;12.36;100.00
53619;BME280;68717;53.040;18.488;2023-05-22T00:03:48;101760.66;;;12.36;100.00
53619;BME280;68717;53.040;18.488;2023-05-22T00:04:02;101762.50;;;12.35;100.00
53619;BME280;68717;53.040;18.488;2023-05-22T00:04:15;101765.19;;;12.35;100.00
53619;BME280;68717;53.040;18.488;2023-05-22T00:04:32;101760.78;;;12.34;100.00
53619;BME280;68717;53.040;18.488;2023-05-22T00:04:45;101758.97;;;12.35;100.00
53619;BME280;68717;53.040;18.488;2023-05-22T00:04:58;101762.50;;;12.35;100.00
53619;BME280;68717;53.040;18.488;2023-05-22T00:05:13;101762.50;;;12.35;100.00
53619;BME280;68717;53.040;18.488;2023-05-22T00:05:26;101761.66;;;12.35;100.00
53619;BME280;68717;53.040;18.488;2023-05-22T00:05:39;101767.88;;;12.35;100.00
53619;BME280;68717;53.040;18.488;2023-05-22T00:05:52;101762.50;;;12.35;100.00
53619;BME280;68717;53.040;18.488;2023-05-22T00:06:10;101766.03;;;12.36;100.00
53619;BME280;68717;53.040;18.488;2023-05-22T00:06:23;101763.34;;;12.36;100.00
53619;BME280;68717;53.040;18.488;2023-05-22T00:06:36;101763.34;;;12.36;100.00
53619;BME280;68717;53.040;18.488;2023-05-22T00:06:49;101766.91;;;12.36;100.00
53619;BME280;68717;53.040;18.488;2023-05-22T00:07:01;101762.50;;;12.35;100.00
53619;BME280;68717;53.040;18.488;2023-05-22T00:07:15;101768.75;;;12.36;100.00
53619;BME280;68717;53.040;18.488;2023-05-22T00:07:28;101767.88;;;12.35;100.00
53619;BME280;68717;53.040;18.488;2023-05-22T00:07:41;101761.66;;;12.35;100.00
53619;BME280;68717;53.040;18.488;2023-05-22T00:07:55;101771.53;;;12.34;100.00
53619;BME280;68717;53.040;18.488;2023-05-22T00:08:07;101762.63;;;12.33;100.00
53619;BME280;68717;53.040;18.488;2023-05-22T00:08:22;101770.69;;;12.33;100.00
53619;BME280;68717;53.040;18.488;2023-05-22T00:08:35;101769.00;;;12.32;100.00
53619;BME280;68717;53.040;18.488;2023-05-22T00:08:49;101764.69;;;12.30;100.00
53619;BME280;68717;53.040;18.488;2023-05-22T00:09:01;101773.47;;;12.32;100.00
53619;BME280;68717;53.040;18.488;2023-05-22T00:09:14;101770.06;;;12.30;100.00
53619;BME280;68717;53.040;18.488;2023-05-22T00:09:27;101762.00;;;12.30;100.00
53619;BME280;68717;53.040;18.488;2023-05-22T00:09:40;101769.22;;;12.29;100.00
53619;BME280;68717;53.040;18.488;2023-05-22T00:09:53;101768.34;;;12.29;100.00
53619;BME280;68717;53.040;18.488;2023-05-22T00:10:06;101765.66;;;12.29;100.00
53619;BME280;68717;53.040;18.488;2023-05-22T00:10:19;101763.97;;;12.28;100.00
53619;BME280;68717;53.040;18.488;2023-05-22T00:10:32;101769.34;;;12.28;100.00
53619;BME280;68717;53.040;18.488;2023-05-22T00:10:44;101763.97;;;12.28;100.00
53619;BME280;68717;53.040;18.488;2023-05-22T00:10:57;101762.13;;;12.28;100.00
53619;BME280;68717;53.040;18.488;2023-05-22T00:11:10;101756.88;;;12.27;100.00
53619;BME280;68717;53.040;18.488;2023-05-22T00:11:22;101764.94;;;12.27;100.00
53619;BME280;68717;53.040;18.488;2023-05-22T00:11:35;101770.31;;;12.27;100.00
53619;BME280;68717;53.040;18.488;2023-05-22T00:11:49;101765.91;;;12.26;100.00
53619;BME280;68717;53.040;18.488;2023-05-22T00:12:04;101770.31;;;12.27;100.00
53619;BME280;68717;53.040;18.488;2023-05-22T00:12:16;101758.69;;;12.26;100.00
53619;BME280;68717;53.040;18.488;2023-05-22T00:12:29;101765.91;;;12.26;100.00
53619;BME280;68717;53.040;18.488;2023-05-22T00:12:42;101762.34;;;12.25;100.00
53619;BME280;68717;53.040;18.488;2023-05-22T00:12:54;101765.03;;;12.25;100.00
53619;BME280;68717;53.040;18.488;2023-05-22T00:13:07;101766.88;;;12.25;100.00
53619;BME280;68717;53.040;18.488;2023-05-22T00:13:20;101765.19;;;12.24;100.00
53619;BME280;68717;53.040;18.488;2023-05-22T00:13:33;101765.19;;;12.24;100.00
53619;BME280;68717;53.040;18.488;2023-05-22T00:13:46;101761.75;;;12.22;100.00
53619;BME280;68717;53.040;18.488;2023-05-22T00:13:58;101763.44;;;12.23;100.00
53619;BME280;68717;53.040;18.488;2023-05-22T00:14:11;101761.75;;;12.22;100.00
53619;BME280;68717;53.040;18.488;2023-05-22T00:14:25;101764.44;;;12.22;100.00
53619;BME280;68717;53.040;18.488;2023-05-22T00:14:37;101761.75;;;12.22;100.00
53619;BME280;68717;53.040;18.488;2023-05-22T00:14:50;101752.81;;;12.21;100.00
53619;BME280;68717;53.040;18.488;2023-05-22T00:15:05;101767.13;;;12.22;100.00
53619;BME280;68717;53.040;18.488;2023-05-22T00:15:17;101760.03;;;12.21;100.00
53619;BME280;68717;53.040;18.488;2023-05-22T00:15:30;101755.63;;;12.20;100.00
53619;BME280;68717;53.040;18.488;2023-05-22T00:15:43;101762.72;;;12.21;100.00
53619;BME280;68717;53.040;18.488;2023-05-22T00:15:56;101758.31;;;12.20;100.00
53619;BME280;68717;53.040;18.488;2023-05-22T00:16:08;101758.31;;;12.20;100.00
53619;BME280;68717;53.040;18.488;2023-05-22T00:16:21;101761.00;;;12.20;100.00
53619;BME280;68717;53.040;18.488;2023-05-22T00:16:33;101761.00;;;12.20;100.00
53619;BME280;68717;53.040;18.488;2023-05-22T00:16:47;101758.31;;;12.20;100.00
53619;BME280;68717;53.040;18.488;2023-05-22T00:17:00;101761.00;;;12.20;100.00
53619;BME280;68717;53.040;18.488;2023-05-22T00:17:13;101767.34;;;12.19;100.00
53619;BME280;68717;53.040;18.488;2023-05-22T00:17:26;101761.97;;;12.19;100.00
53619;BME280;68717;53.040;18.488;2023-05-22T00:17:42;101756.59;;;12.19;100.00
53619;BME280;68717;53.040;18.488;2023-05-22T00:17:55;101756.59;;;12.19;100.00
53619;BME280;68717;53.040;18.488;2023-05-22T00:18:08;101761.97;;;12.19;100.00
53619;BME280;68717;53.040;18.488;2023-05-22T00:18:22;101764.66;;;12.19;100.00
53619;BME280;68717;53.040;18.488;2023-05-22T00:18:38;101759.28;;;12.19;100.00
53619;BME280;68717;53.040;18.488;2023-05-22T00:18:53;101763.81;;;12.18;100.00
53619;BME280;68717;53.040;18.488;2023-05-22T00:19:07;101765.66;;;12.18;100.00
53619;BME280;68717;53.040;18.488;2023-05-22T00:19:24;101757.59;;;12.18;100.00
53619;BME280;68717;53.040;18.488;2023-05-22T00:19:37;101765.66;;;12.18;100.00
53619;BME280;68717;53.040;18.488;2023-05-22T00:19:50;101764.81;;;12.17;100.00
53619;BME280;68717;53.040;18.488;2023-05-22T00:20:03;101761.22;;;12.17;100.00
53619;BME280;68717;53.040;18.488;2023-05-22T00:20:18;101762.22;;;12.16;100.00
53619;BME280;68717;53.040;18.488;2023-05-22T00:20:31;101762.22;;;12.16;100.00
53619;BME280;68717;53.040;18.488;2023-05-22T00:20:43;101765.88;;;12.15;100.00
53619;BME280;68717;53.040;18.488;2023-05-22T00:20:58;101755.13;;;12.15;100.00
53619;BME280;68717;53.040;18.488;2023-05-22T00:21:10;101760.50;;;12.15;100.00
53619;BME280;68717;53.040;18.488;2023-05-22T00:21:23;101754.25;;;12.14;100.00
53619;BME280;68717;53.040;18.488;2023-05-22T00:21:36;101765.88;;;12.15;100.00
53619;BME280;68717;53.040;18.488;2023-05-22T00:21:50;101761.47;;;12.14;100.00
53619;BME280;68717;53.040;18.488;2023-05-22T00:22:02;101769.53;;;12.14;100.00
53619;BME280;68717;53.040;18.488;2023-05-22T00:22:16;101760.63;;;12.13;100.00
53619;BME280;68717;53.040;18.488;2023-05-22T00:22:29;101759.75;;;12.12;100.00
53619;BME280;68717;53.040;18.488;2023-05-22T00:22:42;101764.28;;;12.12;100.00
53619;BME280;68717;53.040;18.488;2023-05-22T00:22:56;101760.63;;;12.13;100.00
53619;BME280;68717;53.040;18.488;2023-05-22T00:23:09;101766.13;;;12.11;100.00
53619;BME280;68717;53.040;18.488;2023-05-22T00:23:24;101763.44;;;12.11;100.00
53619;BME280;68717;53.040;18.488;2023-05-22T00:23:39;101763.44;;;12.11;100.00
53619;BME280;68717;53.040;18.488;2023-05-22T00:23:52;101760.00;;;12.09;100.00
53619;BME280;68717;53.040;18.488;2023-05-22T00:24:05;101762.78;;;12.08;100.00
53619;BME280;68717;53.040;18.488;2023-05-22T00:24:18;101766.38;;;12.08;100.00
53619;BME280;68717;53.040;18.488;2023-05-22T00:24:31;101762.78;;;12.08;100.00
53619;BME280;68717;53.040;18.488;2023-05-22T00:24:43;101763.78;;;12.07;100.00
53619;BME280;68717;53.040;18.488;2023-05-22T00:24:56;101761.19;;;12.05;100.00
53619;BME280;68717;53.040;18.488;2023-05-22T00:25:10;101761.19;;;12.05;100.00
53619;BME280;68717;53.040;18.488;2023-05-22T00:25:23;101757.66;;;12.05;100.00
53619;BME280;68717;53.040;18.488;2023-05-22T00:25:35;101762.19;;;12.04;100.00
53619;BME280;68717;53.040;18.488;2023-05-22T00:25:48;101757.78;;;12.03;100.00
53619;BME280;68717;53.040;18.488;2023-05-22T00:26:02;101762.31;;;12.03;100.00
53619;BME280;68717;53.040;18.488;2023-05-22T00:26:15;101760.59;;;12.02;100.00
53619;BME280;68717;53.040;18.488;2023-05-22T00:26:28;101759.59;;;12.03;100.00
53619;BME280;68717;53.040;18.488;2023-05-22T00:26:41;101761.44;;;12.02;100.00
53619;BME280;68717;53.040;18.488;2023-05-22T00:26:54;101761.44;;;12.02;100.00
53619;BME280;68717;53.040;18.488;2023-05-22T00:27:08;101762.41;;;12.01;100.00
53619;BME280;68717;53.040;18.488;2023-05-22T00:27:21;101763.41;;;12.00;100.00
53619;BME280;68717;53.040;18.488;2023-05-22T00:27:33;101761.56;;;12.01;100.00
53619;BME280;68717;53.040;18.488;2023-05-22T00:27:46;101756.28;;;11.99;100.00
53619;BME280;68717;53.040;18.488;2023-05-22T00:28:00;101759.84;;;12.00;100.00
53619;BME280;68717;53.040;18.488;2023-05-22T00:28:12;101759.97;;;11.98;100.00
53619;BME280;68717;53.040;18.488;2023-05-22T00:28:27;101759.97;;;11.98;100.00
53619;BME280;68717;53.040;18.488;2023-05-22T00:28:39;101759.97;;;11.98;100.00
53619;BME280;68717;53.040;18.488;2023-05-22T00:28:52;101765.34;;;11.98;100.00
53619;BME280;68717;53.040;18.488;2023-05-22T00:29:06;101759.13;;;11.98;100.00
53619;BME280;68717;53.040;18.488;2023-05-22T00:29:18;101763.59;;;11.97;100.00
53619;BME280;68717;53.040;18.488;2023-05-22T00:29:31;101761.91;;;11.96;100.00
53619;BME280;68717;53.040;18.488;2023-05-22T00:29:43;101753.84;;;11.96;100.00
53619;BME280;68717;53.040;18.488;2023-05-22T00:29:57;101757.50;;;11.95;100.00
53619;BME280;68717;53.040;18.488;2023-05-22T00:30:10;101760.19;;;11.95;100.00
53619;BME280;68717;53.040;18.488;2023-05-22T00:30:23;101757.63;;;11.94;100.00
53619;BME280;68717;53.040;18.488;2023-05-22T00:30:36;101758.47;;;11.94;100.00
53619;BME280;68717;53.040;18.488;2023-05-22T00:30:50;101761.16;;;11.94;100.00
53619;BME280;68717;53.040;18.488;2023-05-22T00:31:02;101755.91;;;11.93;100.00
53619;BME280;68717;53.040;18.488;2023-05-22T00:31:15;101756.78;;;11.93;100.00
53619;BME280;68717;53.040;18.488;2023-05-22T00:31:28;101762.16;;;11.93;100.00
53619;BME280;68717;53.040;18.488;2023-05-22T00:31:40;101759.47;;;11.93;100.00
53619;BME280;68717;53.040;18.488;2023-05-22T00:31:54;101764.94;;;11.91;100.00
53619;BME280;68717;53.040;18.488;2023-05-22T00:32:07;101761.28;;;11.93;100.00
53619;BME280;68717;53.040;18.488;2023-05-22T00:32:19;101769.34;;;11.93;100.00
53619;BME280;68717;53.040;18.488;2023-05-22T00:32:32;101754.09;;;11.93;100.00
53619;BME280;68717;53.040;18.488;2023-05-22T00:32:45;101756.91;;;11.91;100.00
53619;BME280;68717;53.040;18.488;2023-05-22T00:32:57;101762.28;;;11.91;100.00
53619;BME280;68717;53.040;18.488;2023-05-22T00:33:10;101764.94;;;11.91;100.00
53619;BME280;68717;53.040;18.488;2023-05-22T00:33:24;101760.44;;;11.92;100.00
53619;BME280;68717;53.040;18.488;2023-05-22T00:33:36;101763.97;;;11.93;100.00
53619;BME280;68717;53.040;18.488;2023-05-22T00:33:49;101763.13;;;11.92;100.00
53619;BME280;68717;53.040;18.488;2023-05-22T00:34:02;101764.09;;;11.91;100.00
53619;BME280;68717;53.040;18.488;2023-05-22T00:34:15;101758.72;;;11.91;100.00
53619;BME280;68717;53.040;18.488;2023-05-22T00:34:27;101758.72;;;11.91;100.00
53619;BME280;68717;53.040;18.488;2023-05-22T00:34:40;101757.84;;;11.90;100.00
53619;BME280;68717;53.040;18.488;2023-05-22T00:34:54;101769.47;;;11.91;100.00
53619;BME280;68717;53.040;18.488;2023-05-22T00:35:08;101762.38;;;11.90;100.00
53619;BME280;68717;53.040;18.488;2023-05-22T00:35:20;101763.38;;;11.89;100.00
53619;BME280;68717;53.040;18.488;2023-05-22T00:35:33;101756.16;;;11.89;100.00
53619;BME280;68717;53.040;18.488;2023-05-22T00:35:46;101754.41;;;11.88;100.00
53619;BME280;68717;53.040;18.488;2023-05-22T00:35:59;101763.38;;;11.89;100.00
53619;BME280;68717;53.040;18.488;2023-05-22T00:36:12;101758.94;;;11.88;100.00
53619;BME280;68717;53.040;18.488;2023-05-22T00:36:25;101751.88;;;11.87;100.00
53619;BME280;68717;53.040;18.488;2023-05-22T00:36:37;101756.38;;;11.86;100.00
53619;BME280;68717;53.040;18.488;2023-05-22T00:36:50;101755.50;;;11.86;100.00
53619;BME280;68717;53.040;18.488;2023-05-22T00:37:03;101758.19;;;11.86;100.00
53619;BME280;68717;53.040;18.488;2023-05-22T00:37:16;101757.34;;;11.85;100.00
53619;BME280;68717;53.040;18.488;2023-05-22T00:37:31;101754.66;;;11.85;100.00
53619;BME280;68717;53.040;18.488;2023-05-22T00:37:43;101759.19;;;11.85;100.00
53619;BME280;68717;53.040;18.488;2023-05-22T00:37:57;101757.47;;;11.84;100.00
53619;BME280;68717;53.040;18.488;2023-05-22T00:38:26;101759.28;;;11.83;100.00
53619;BME280;68717;53.040;18.488;2023-05-22T00:38:39;101757.47;;;11.84;100.00
53619;BME280;68717;53.040;18.488;2023-05-22T00:38:52;101755.75;;;11.83;100.00
53619;BME280;68717;53.040;18.488;2023-05-22T00:39:04;101761.13;;;11.83;100.00
53619;BME280;68717;53.040;18.488;2023-05-22T00:39:17;101755.75;;;11.83;100.00
53619;BME280;68717;53.040;18.488;2023-05-22T00:39:29;101756.72;;;11.82;100.00
53619;BME280;68717;53.040;18.488;2023-05-22T00:39:43;101748.66;;;11.82;100.00
53619;BME280;68717;53.040;18.488;2023-05-22T00:39:56;101755.75;;;11.83;100.00
53619;BME280;68717;53.040;18.488;2023-05-22T00:40:09;101748.66;;;11.82;100.00
53619;BME280;68717;53.040;18.488;2023-05-22T00:40:23;101759.41;;;11.82;100.00
53619;BME280;68717;53.040;18.488;2023-05-22T00:40:35;101755.75;;;11.83;100.00
53619;BME280;68717;53.040;18.488;2023-05-22T00:40:49;101753.06;;;11.83;100.00
53619;BME280;68717;53.040;18.488;2023-05-22T00:41:03;101755.75;;;11.83;100.00
53619;BME280;68717;53.040;18.488;2023-05-22T00:41:17;101754.91;;;11.82;100.00
53619;BME280;68717;53.040;18.488;2023-05-22T00:41:30;101758.44;;;11.83;100.00
53619;BME280;68717;53.040;18.488;2023-05-22T00:41:45;101760.28;;;11.82;100.00
53619;BME280;68717;53.040;18.488;2023-05-22T00:41:57;101753.19;;;11.81;100.00
53619;BME280;68717;53.040;18.488;2023-05-22T00:42:11;101753.19;;;11.81;100.00
53619;BME280;68717;53.040;18.488;2023-05-22T00:42:24;101752.34;;;11.81;100.00
53619;BME280;68717;53.040;18.488;2023-05-22T00:42:38;101753.28;;;11.80;100.00
53619;BME280;68717;53.040;18.488;2023-05-22T00:42:50;101753.28;;;11.80;100.00
53619;BME280;68717;53.040;18.488;2023-05-22T00:43:03;101750.59;;;11.80;100.00
53619;BME280;68717;53.040;18.488;2023-05-22T00:43:20;101746.22;;;11.79;100.00
53619;BME280;68717;53.040;18.488;2023-05-22T00:43:33;101755.13;;;11.79;100.00
53619;BME280;68717;53.040;18.488;2023-05-22T00:43:45;101748.91;;;11.79;100.00
53619;BME280;68717;53.040;18.488;2023-05-22T00:43:59;101756.97;;;11.79;100.00
53619;BME280;68717;53.040;18.488;2023-05-22T00:44:12;101751.59;;;11.79;100.00
53619;BME280;68717;53.040;18.488;2023-05-22T00:44:24;101756.13;;;11.78;100.00
53619;BME280;68717;53.040;18.488;2023-05-22T00:44:37;101758.81;;;11.78;100.00
53619;BME280;68717;53.040;18.488;2023-05-22T00:44:50;101752.53;;;11.78;100.00
53619;BME280;68717;53.040;18.488;2023-05-22T00:45:03;101749.00;;;11.77;100.00
53619;BME280;68717;53.040;18.488;2023-05-22T00:45:16;101758.81;;;11.78;100.00
53619;BME280;68717;53.040;18.488;2023-05-22T00:45:30;101754.38;;;11.77;100.00
53619;BME280;68717;53.040;18.488;2023-05-22T00:45:42;101750.84;;;11.77;100.00
53619;BME280;68717;53.040;18.488;2023-05-22T00:45:55;101761.59;;;11.77;100.00
53619;BME280;68717;53.040;18.488;2023-05-22T00:46:08;101761.59;;;11.77;100.00
53619;BME280;68717;53.040;18.488;2023-05-22T00:46:21;101755.38;;;11.76;100.00
53619;BME280;68717;53.040;18.488;2023-05-22T00:46:34;101755.47;;;11.75;100.00
53619;BME280;68717;53.040;18.488;2023-05-22T00:46:47;101753.78;;;11.74;100.00
53619;BME280;68717;53.040;18.488;2023-05-22T00:47:00;101753.78;;;11.74;100.00
53619;BME280;68717;53.040;18.488;2023-05-22T00:47:13;101757.41;;;11.73;100.00
53619;BME280;68717;53.040;18.488;2023-05-22T00:47:26;101751.19;;;11.72;100.00
53619;BME280;68717;53.040;18.488;2023-05-22T00:47:38;101754.84;;;11.71;100.00
53619;BME280;68717;53.040;18.488;2023-05-22T00:47:51;101755.81;;;11.70;100.00
53619;BME280;68717;53.040;18.488;2023-05-22T00:48:05;101753.13;;;11.70;100.00
53619;BME280;68717;53.040;18.488;2023-05-22T00:48:20;101753.25;;;11.68;100.00
53619;BME280;68717;53.040;18.488;2023-05-22T00:48:33;101754.22;;;11.67;100.00
53619;BME280;68717;53.040;18.488;2023-05-22T00:48:46;101752.41;;;11.68;100.00
53619;BME280;68717;53.040;18.488;2023-05-22T00:48:59;101751.53;;;11.67;100.00
53619;BME280;68717;53.040;18.488;2023-05-22T00:49:11;101755.19;;;11.66;100.00
53619;BME280;68717;53.040;18.488;2023-05-22T00:49:24;101755.19;;;11.66;100.00
53619;BME280;68717;53.040;18.488;2023-05-22T00:49:36;101749.97;;;11.65;100.00
53619;BME280;68717;53.040;18.488;2023-05-22T00:49:50;101749.97;;;11.65;100.00
53619;BME280;68717;53.040;18.488;2023-05-22T00:50:03;101754.44;;;11.64;100.00
53619;BME280;68717;53.040;18.488;2023-05-22T00:50:17;101750.91;;;11.64;100.00
53619;BME280;68717;53.040;18.488;2023-05-22T00:50:30;101749.97;;;11.65;100.00
53619;BME280;68717;53.040;18.488;2023-05-22T00:50:42;101752.75;;;11.63;100.00
53619;BME280;68717;53.040;18.488;2023-05-22T00:50:56;101755.44;;;11.63;100.00
53619;BME280;68717;53.040;18.488;2023-05-22T00:51:11;101755.44;;;11.63;100.00
53619;BME280;68717;53.040;18.488;2023-05-22T00:51:24;101756.38;;;11.62;100.00
53619;BME280;68717;53.040;18.488;2023-05-22T00:51:37;101752.75;;;11.63;100.00
53619;BME280;68717;53.040;18.488;2023-05-22T00:51:50;101750.16;;;11.62;100.00
53619;BME280;68717;53.040;18.488;2023-05-22T00:52:03;101748.31;;;11.62;100.00
53619;BME280;68717;53.040;18.488;2023-05-22T00:52:15;101757.38;;;11.61;100.00
53619;BME280;68717;53.040;18.488;2023-05-22T00:52:29;101753.69;;;11.62;100.00
53619;BME280;68717;53.040;18.488;2023-05-22T00:52:44;101752.84;;;11.62;100.00
53619;BME280;68717;53.040;18.488;2023-05-22T00:52:57;101753.69;;;11.62;100.00
53619;BME280;68717;53.040;18.488;2023-05-22T00:53:10;101754.59;;;11.63;100.00
53619;BME280;68717;53.040;18.488;2023-05-22T00:53:24;101748.31;;;11.62;100.00
53619;BME280;68717;53.040;18.488;2023-05-22T00:53:37;101748.31;;;11.62;100.00
53619;BME280;68717;53.040;18.488;2023-05-22T00:53:50;101753.69;;;11.62;100.00
53619;BME280;68717;53.040;18.488;2023-05-22T00:54:04;101751.00;;;11.62;100.00
53619;BME280;68717;53.040;18.488;2023-05-22T00:54:17;101753.69;;;11.62;100.00
53619;BME280;68717;53.040;18.488;2023-05-22T00:54:30;101756.38;;;11.62;100.00
53619;BME280;68717;53.040;18.488;2023-05-22T00:54:44;101750.28;;;11.60;100.00
53619;BME280;68717;53.040;18.488;2023-05-22T00:54:57;101756.53;;;11.61;100.00
53619;BME280;68717;53.040;18.488;2023-05-22T00:55:11;101751.16;;;11.61;100.00
53619;BME280;68717;53.040;18.488;2023-05-22T00:55:25;101755.63;;;11.60;100.00
53619;BME280;68717;53.040;18.488;2023-05-22T00:55:38;101748.56;;;11.59;100.00
53619;BME280;68717;53.040;18.488;2023-05-22T00:55:52;101749.41;;;11.60;100.00
53619;BME280;68717;53.040;18.488;2023-05-22T00:56:05;101753.94;;;11.59;100.00
53619;BME280;68717;53.040;18.488;2023-05-22T00:56:18;101747.72;;;11.59;100.00
53619;BME280;68717;53.040;18.488;2023-05-22T00:56:32;101754.94;;;11.58;100.00
53619;BME280;68717;53.040;18.488;2023-05-22T00:56:45;101751.38;;;11.58;100.00
53619;BME280;68717;53.040;18.488;2023-05-22T00:56:58;101750.50;;;11.57;100.00
53619;BME280;68717;53.040;18.488;2023-05-22T00:57:14;101748.81;;;11.56;100.00
53619;BME280;68717;53.040;18.488;2023-05-22T00:57:27;101747.94;;;11.56;100.00
53619;BME280;68717;53.040;18.488;2023-05-22T00:57:40;101753.31;;;11.56;100.00
53619;BME280;68717;53.040;18.488;2023-05-22T00:57:53;101747.94;;;11.56;100.00
53619;BME280;68717;53.040;18.488;2023-05-22T00:58:07;101751.50;;;11.56;100.00
53619;BME280;68717;53.040;18.488;2023-05-22T00:58:24;101749.78;;;11.55;100.00
53619;BME280;68717;53.040;18.488;2023-05-22T00:58:37;101750.75;;;11.54;100.00
53619;BME280;68717;53.040;18.488;2023-05-22T00:58:50;101754.28;;;11.55;100.00
53619;BME280;68717;53.040;18.488;2023-05-22T00:59:04;101748.06;;;11.54;100.00
53619;BME280;68717;53.040;18.488;2023-05-22T00:59:17;101744.50;;;11.54;100.00
53619;BME280;68717;53.040;18.488;2023-05-22T00:59:30;101751.59;;;11.55;100.00
53619;BME280;68717;53.040;18.488;2023-05-22T00:59:43;101748.06;;;11.54;100.00
53619;BME280;68717;53.040;18.488;2023-05-22T00:59:56;101749.03;;;11.53;100.00
53619;BME280;68717;53.040;18.488;2023-05-22T01:00:12;101746.34;;;11.53;100.00
53619;BME280;68717;53.040;18.488;2023-05-22T01:00:25;101750.75;;;11.54;100.00
53619;BME280;68717;53.040;18.488;2023-05-22T01:00:39;101744.50;;;11.54;100.00
53619;BME280;68717;53.040;18.488;2023-05-22T01:00:53;101751.59;;;11.55;100.00
53619;BME280;68717;53.040;18.488;2023-05-22T01:01:08;101756.13;;;11.54;100.00
53619;BME280;68717;53.040;18.488;2023-05-22T01:01:22;101747.19;;;11.54;100.00
53619;BME280;68717;53.040;18.488;2023-05-22T01:01:37;101751.72;;;11.53;100.00
53619;BME280;68717;53.040;18.488;2023-05-22T01:01:54;101750.84;;;11.53;100.00
53619;BME280;68717;53.040;18.488;2023-05-22T01:02:07;101750.84;;;11.53;100.00
53619;BME280;68717;53.040;18.488;2023-05-22T01:02:22;101745.59;;;11.51;100.00
53619;BME280;68717;53.040;18.488;2023-05-22T01:02:36;101745.59;;;11.51;100.00
53619;BME280;68717;53.040;18.488;2023-05-22T01:02:49;101745.72;;;11.49;100.00
53619;BME280;68717;53.040;18.488;2023-05-22T01:03:03;101743.16;;;11.48;100.00
53619;BME280;68717;53.040;18.488;2023-05-22T01:03:17;101745.84;;;11.48;100.00
53619;BME280;68717;53.040;18.488;2023-05-22T01:03:31;101744.97;;;11.47;100.00
53619;BME280;68717;53.040;18.488;2023-05-22T01:03:45;101745.94;;;11.46;100.00
53619;BME280;68717;53.040;18.488;2023-05-22T01:03:58;101747.78;;;11.46;100.00
53619;BME280;68717;53.040;18.488;2023-05-22T01:04:13;101746.94;;;11.45;100.00
53619;BME280;68717;53.040;18.488;2023-05-22T01:04:27;101738.97;;;11.44;100.00
53619;BME280;68717;53.040;18.488;2023-05-22T01:04:40;101746.19;;;11.43;100.00
53619;BME280;68717;53.040;18.488;2023-05-22T01:04:54;101742.63;;;11.43;100.00
53619;BME280;68717;53.040;18.488;2023-05-22T01:05:09;101747.97;;;11.43;100.00
53619;BME280;68717;53.040;18.488;2023-05-22T01:05:24;101744.44;;;11.42;100.00
53619;BME280;68717;53.040;18.488;2023-05-22T01:05:39;101743.59;;;11.42;100.00
53619;BME280;68717;53.040;18.488;2023-05-22T01:05:52;101744.44;;;11.42;100.00
53619;BME280;68717;53.040;18.488;2023-05-22T01:06:05;101743.59;;;11.42;100.00
53619;BME280;68717;53.040;18.488;2023-05-22T01:06:18;101747.13;;;11.42;100.00
53619;BME280;68717;53.040;18.488;2023-05-22T01:06:32;101749.91;;;11.41;100.00
53619;BME280;68717;53.040;18.488;2023-05-22T01:06:45;101748.97;;;11.42;100.00
53619;BME280;68717;53.040;18.488;2023-05-22T01:06:59;101744.56;;;11.41;100.00
53619;BME280;68717;53.040;18.488;2023-05-22T01:07:14;101752.59;;;11.41;100.00
53619;BME280;68717;53.040;18.488;2023-05-22T01:07:27;101743.59;;;11.42;100.00
53619;BME280;68717;53.040;18.488;2023-05-22T01:07:41;101752.50;;;11.42;100.00
53619;BME280;68717;53.040;18.488;2023-05-22T01:07:54;101750.81;;;11.41;100.00
53619;BME280;68717;53.040;18.488;2023-05-22T01:08:08;101746.28;;;11.42;100.00
53619;BME280;68717;53.040;18.488;2023-05-22T01:08:21;101750.81;;;11.41;100.00
53619;BME280;68717;53.040;18.488;2023-05-22T01:08:34;101751.66;;;11.42;100.00
53619;BME280;68717;53.040;18.488;2023-05-22T01:08:47;101747.25;;;11.41;100.00